sensor_id;sensor_type;location;lat;lon;timestamp;pressure;altitude;pressure_sealevel;temperature;humidity
56084;BME280;41958;52.416;13.428;2022-08-30T00:00:06;101524.50;;;15.47;100.00
56084;BME280;41958;52.416;13.428;2022-08-30T00:02:51;101525.13;;;15.41;100.00
56084;BME280;41958;52.416;13.428;2022-08-30T00:05:16;101510.88;;;15.33;100.00
56084;BME280;41958;52.416;13.428;2022-08-30T00:07:42;101527.41;;;15.35;100.00
56084;BME280;41958;52.416;13.428;2022-08-30T00:10:07;101530.50;;;15.30;100.00
56084;BME280;41958;52.416;13.428;2022-08-30T00:12:33;101534.16;;;15.30;100.00
56084;BME280;41958;52.416;13.428;2022-08-30T00:14:59;101532.03;;;15.27;100.00
56084;BME280;41958;52.416;13.428;2022-08-30T00:17:24;101528.97;;;15.32;100.00
56084;BME280;41958;52.416;13.428;2022-08-30T00:19:50;101531.88;;;15.36;100.00
56084;BME280;41958;52.416;13.428;2022-08-30T00:22:16;101530.22;;;15.35;100.00
56084;BME280;41958;52.416;13.428;2022-08-30T00:24:41;101533.69;;;15.28;100.00
56084;BME280;41958;52.416;13.428;2022-08-30T00:27:06;101539.25;;;15.25;100.00
56084;BME280;41958;52.416;13.428;2022-08-30T00:29:32;101538.34;;;15.21;100.00
56084;BME280;41958;52.416;13.428;2022-08-30T00:31:57;101541.41;;;15.15;100.00
56084;BME280;41958;52.416;13.428;2022-08-30T00:34:22;101547.31;;;15.10;100.00
56084;BME280;41958;52.416;13.428;2022-08-30T00:36:48;101550.38;;;15.05;100.00
56084;BME280;41958;52.416;13.428;2022-08-30T00:39:13;101542.19;;;15.00;100.00
56084;BME280;41958;52.416;13.428;2022-08-30T00:41:38;101544.19;;;14.99;100.00
56084;BME280;41958;52.416;13.428;2022-08-30T00:44:04;101542.19;;;15.00;100.00
56084;BME280;41958;52.416;13.428;2022-08-30T00:46:29;101533.56;;;14.93;100.00
56084;BME280;41958;52.416;13.428;2022-08-30T00:48:56;101537.81;;;14.87;100.00
56084;BME280;41958;52.416;13.428;2022-08-30T00:51:21;101537.25;;;14.81;100.00
56084;BME280;41958;52.416;13.428;2022-08-30T00:53:50;101543.13;;;14.76;100.00
56084;BME280;41958;52.416;13.428;2022-08-30T00:56:17;101537.88;;;14.74;100.00
56084;BME280;41958;52.416;13.428;2022-08-30T00:58:47;101534.81;;;14.79;100.00
56084;BME280;41958;52.416;13.428;2022-08-30T01:01:13;101534.53;;;14.84;100.00
56084;BME280;41958;52.416;13.428;2022-08-30T01:03:38;101546.59;;;14.85;100.00
56084;BME280;41958;52.416;13.428;2022-08-30T01:06:05;101536.09;;;14.82;100.00
56084;BME280;41958;52.416;13.428;2022-08-30T01:08:31;101543.25;;;14.79;100.00
56084;BME280;41958;52.416;13.428;2022-08-30T01:10:57;101550.75;;;14.75;100.00
56084;BME280;41958;52.416;13.428;2022-08-30T01:13:24;101536.50;;;14.68;100.00
56084;BME280;41958;52.416;13.428;2022-08-30T01:15:50;101547.50;;;14.61;100.00
56084;BME280;41958;52.416;13.428;2022-08-30T01:18:16;101543.53;;;14.62;100.00
56084;BME280;41958;52.416;13.428;2022-08-30T01:20:49;101535.34;;;14.57;100.00
56084;BME280;41958;52.416;13.428;2022-08-30T01:23:17;101549.88;;;14.59;100.00
56084;BME280;41958;52.416;13.428;2022-08-30T01:25:47;101554.22;;;14.56;100.00
56084;BME280;41958;52.416;13.428;2022-08-30T01:28:17;101550.22;;;14.57;100.00
56084;BME280;41958;52.416;13.428;2022-08-30T01:30:44;101550.69;;;14.59;100.00
56084;BME280;41958;52.416;13.428;2022-08-30T01:33:10;101560.53;;;14.65;100.00
56084;BME280;41958;52.416;13.428;2022-08-30T01:35:57;101548.00;;;14.63;100.00
56084;BME280;41958;52.416;13.428;2022-08-30T01:38:29;101549.28;;;14.65;100.00
56084;BME280;41958;52.416;13.428;2022-08-30T01:41:09;101531.72;;;14.56;100.00
56084;BME280;41958;52.416;13.428;2022-08-30T01:43:34;101547.19;;;14.62;100.00
56084;BME280;41958;52.416;13.428;2022-08-30T01:46:00;101546.25;;;14.58;100.00
56084;BME280;41958;52.416;13.428;2022-08-30T01:48:26;101550.59;;;14.56;100.00
56084;BME280;41958;52.416;13.428;2022-08-30T01:50:53;101552.00;;;14.49;100.00
56084;BME280;41958;52.416;13.428;2022-08-30T01:53:18;101551.56;;;14.47;100.00
56084;BME280;41958;52.416;13.428;2022-08-30T01:55:43;101547.84;;;14.43;100.00
56084;BME280;41958;52.416;13.428;2022-08-30T01:58:09;101545.72;;;14.40;100.00
56084;BME280;41958;52.416;13.428;2022-08-30T02:00:35;101549.34;;;14.41;100.00
56084;BME280;41958;52.416;13.428;2022-08-30T02:03:00;101543.97;;;14.36;100.00
56084;BME280;41958;52.416;13.428;2022-08-30T02:05:25;101547.59;;;14.36;100.00
56084;BME280;41958;52.416;13.428;2022-08-30T02:07:50;101548.88;;;14.39;100.00
56084;BME280;41958;52.416;13.428;2022-08-30T02:10:16;101545.63;;;14.37;100.00
56084;BME280;41958;52.416;13.428;2022-08-30T02:12:41;101538.91;;;14.41;100.00
56084;BME280;41958;52.416;13.428;2022-08-30T02:15:07;101534.09;;;14.42;100.00
56084;BME280;41958;52.416;13.428;2022-08-30T02:17:34;101532.13;;;14.42;100.00
56084;BME280;41958;52.416;13.428;2022-08-30T02:19:59;101533.66;;;14.40;100.00
56084;BME280;41958;52.416;13.428;2022-08-30T02:22:24;101541.16;;;14.36;100.00
56084;BME280;41958;52.416;13.428;2022-08-30T02:24:50;101534.16;;;14.29;100.00
56084;BME280;41958;52.416;13.428;2022-08-30T02:27:15;101536.16;;;14.29;100.00
56084;BME280;41958;52.416;13.428;2022-08-30T02:29:40;101540.00;;;14.24;100.00
56084;BME280;41958;52.416;13.428;2022-08-30T02:32:06;101525.88;;;14.21;100.00
56084;BME280;41958;52.416;13.428;2022-08-30T02:34:31;101520.03;;;14.13;100.00
56084;BME280;41958;52.416;13.428;2022-08-30T02:36:56;101533.25;;;14.13;100.00
56084;BME280;41958;52.416;13.428;2022-08-30T02:39:22;101532.44;;;14.12;100.00
56084;BME280;41958;52.416;13.428;2022-08-30T02:41:48;101530.31;;;14.09;100.00
56084;BME280;41958;52.416;13.428;2022-08-30T02:44:13;101529.06;;;14.07;100.00
56084;BME280;41958;52.416;13.428;2022-08-30T02:46:38;101532.00;;;13.98;100.00
56084;BME280;41958;52.416;13.428;2022-08-30T02:49:04;101540.91;;;14.00;100.00
56084;BME280;41958;52.416;13.428;2022-08-30T02:51:30;101539.03;;;14.04;100.00
56084;BME280;41958;52.416;13.428;2022-08-30T02:53:55;101540.56;;;14.02;100.00
56084;BME280;41958;52.416;13.428;2022-08-30T02:56:20;101534.00;;;13.97;100.00
56084;BME280;41958;52.416;13.428;2022-08-30T02:58:45;101536.34;;;13.95;100.00
56084;BME280;41958;52.416;13.428;2022-08-30T03:01:14;101531.63;;;13.99;100.00
56084;BME280;41958;52.416;13.428;2022-08-30T03:03:41;101526.81;;;14.12;100.00
56084;BME280;41958;52.416;13.428;2022-08-30T03:06:07;101526.69;;;14.21;100.00
56084;BME280;41958;52.416;13.428;2022-08-30T03:08:35;101532.28;;;14.21;100.00
56084;BME280;41958;52.416;13.428;2022-08-30T03:11:00;101535.59;;;14.23;100.00
56084;BME280;41958;52.416;13.428;2022-08-30T03:13:27;101530.22;;;14.18;100.00
56084;BME280;41958;52.416;13.428;2022-08-30T03:15:52;101533.47;;;14.20;100.00
56084;BME280;41958;52.416;13.428;2022-08-30T03:18:19;101538.84;;;14.66;100.00
56084;BME280;41958;52.416;13.428;2022-08-30T03:20:45;101537.31;;;14.69;100.00
56084;BME280;41958;52.416;13.428;2022-08-30T03:23:11;101541.06;;;14.60;100.00
56084;BME280;41958;52.416;13.428;2022-08-30T03:25:36;101542.69;;;14.74;100.00
56084;BME280;41958;52.416;13.428;2022-08-30T03:28:03;101535.34;;;14.57;100.00
56084;BME280;41958;52.416;13.428;2022-08-30T03:30:29;101536.25;;;14.61;100.00
56084;BME280;41958;52.416;13.428;2022-08-30T03:32:54;101534.16;;;14.58;100.00
56084;BME280;41958;52.416;13.428;2022-08-30T03:35:20;101538.31;;;14.48;100.00
56084;BME280;41958;52.416;13.428;2022-08-30T03:37:45;101536.59;;;14.43;100.00
56084;BME280;41958;52.416;13.428;2022-08-30T03:40:13;101542.22;;;14.43;100.00
56084;BME280;41958;52.416;13.428;2022-08-30T03:42:39;101548.63;;;14.44;100.00
56084;BME280;41958;52.416;13.428;2022-08-30T03:45:06;101544.84;;;14.52;100.00
56084;BME280;41958;52.416;13.428;2022-08-30T03:47:31;101542.53;;;14.54;100.00
56084;BME280;41958;52.416;13.428;2022-08-30T03:49:57;101549.56;;;14.48;100.00
56084;BME280;41958;52.416;13.428;2022-08-30T03:52:22;101547.47;;;14.45;100.00
56084;BME280;41958;52.416;13.428;2022-08-30T03:54:47;101547.16;;;14.34;100.00
56084;BME280;41958;52.416;13.428;2022-08-30T03:57:13;101549.34;;;14.41;100.00
56084;BME280;41958;52.416;13.428;2022-08-30T03:59:38;101555.59;;;14.34;100.00
56084;BME280;41958;52.416;13.428;2022-08-30T04:02:03;101552.53;;;14.27;100.00
56084;BME280;41958;52.416;13.428;2022-08-30T04:04:29;101565.41;;;14.40;100.00
56084;BME280;41958;52.416;13.428;2022-08-30T04:06:54;101559.47;;;14.58;100.00
56084;BME280;41958;52.416;13.428;2022-08-30T04:09:20;101554.72;;;14.46;100.00
56084;BME280;41958;52.416;13.428;2022-08-30T04:11:45;101560.81;;;14.48;100.00
56084;BME280;41958;52.416;13.428;2022-08-30T04:14:11;101560.97;;;14.27;100.00
56084;BME280;41958;52.416;13.428;2022-08-30T04:16:36;101565.31;;;14.24;100.00
56084;BME280;41958;52.416;13.428;2022-08-30T04:19:01;101557.38;;;14.14;100.00
56084;BME280;41958;52.416;13.428;2022-08-30T04:21:26;101573.44;;;14.13;100.00
56084;BME280;41958;52.416;13.428;2022-08-30T04:23:52;101570.97;;;14.12;100.00
56084;BME280;41958;52.416;13.428;2022-08-30T04:26:17;101566.06;;;14.09;100.00
56084;BME280;41958;52.416;13.428;2022-08-30T04:28:42;101564.91;;;14.10;100.00
56084;BME280;41958;52.416;13.428;2022-08-30T04:31:13;101580.91;;;14.09;100.00
56084;BME280;41958;52.416;13.428;2022-08-30T04:33:39;101577.19;;;14.05;100.00
56084;BME280;41958;52.416;13.428;2022-08-30T04:36:06;101575.66;;;14.08;100.00
56084;BME280;41958;52.416;13.428;2022-08-30T04:38:32;101570.16;;;14.11;100.00
56084;BME280;41958;52.416;13.428;2022-08-30T04:40:58;101578.81;;;14.19;100.00
56084;BME280;41958;52.416;13.428;2022-08-30T04:43:24;101574.47;;;14.21;100.00
56084;BME280;41958;52.416;13.428;2022-08-30T04:45:51;101577.75;;;14.23;100.00
56084;BME280;41958;52.416;13.428;2022-08-30T04:48:16;101585.00;;;14.24;100.00
56084;BME280;41958;52.416;13.428;2022-08-30T04:50:42;101577.53;;;14.28;100.00
56084;BME280;41958;52.416;13.428;2022-08-30T04:53:08;101583.34;;;14.36;100.00
56084;BME280;41958;52.416;13.428;2022-08-30T04:55:33;101583.72;;;14.34;100.00
56084;BME280;41958;52.416;13.428;2022-08-30T04:57:58;101580.28;;;14.41;100.00
56084;BME280;41958;52.416;13.428;2022-08-30T05:00:24;101586.38;;;14.43;100.00
56084;BME280;41958;52.416;13.428;2022-08-30T05:02:50;101580.13;;;14.49;100.00
56084;BME280;41958;52.416;13.428;2022-08-30T05:05:15;101589.69;;;14.61;100.00
56084;BME280;41958;52.416;13.428;2022-08-30T05:07:59;101587.97;;;14.69;100.00
56084;BME280;41958;52.416;13.428;2022-08-30T05:10:25;101584.09;;;14.73;100.00
56084;BME280;41958;52.416;13.428;2022-08-30T05:12:52;101586.63;;;14.78;100.00
56084;BME280;41958;52.416;13.428;2022-08-30T05:15:18;101590.94;;;14.88;100.00
56084;BME280;41958;52.416;13.428;2022-08-30T05:17:43;101595.22;;;14.98;100.00
56084;BME280;41958;52.416;13.428;2022-08-30T05:20:10;101597.88;;;15.07;100.00
56084;BME280;41958;52.416;13.428;2022-08-30T05:22:37;101600.91;;;15.14;100.00
56084;BME280;41958;52.416;13.428;2022-08-30T05:25:04;101603.09;;;15.21;100.00
56084;BME280;41958;52.416;13.428;2022-08-30T05:27:29;101606.63;;;15.33;100.00
56084;BME280;41958;52.416;13.428;2022-08-30T05:29:55;101604.56;;;15.46;100.00
56084;BME280;41958;52.416;13.428;2022-08-30T05:32:20;101596.47;;;15.61;100.00
56084;BME280;41958;52.416;13.428;2022-08-30T05:34:45;101600.09;;;15.77;100.00
56084;BME280;41958;52.416;13.428;2022-08-30T05:37:10;101602.66;;;15.98;100.00
56084;BME280;41958;52.416;13.428;2022-08-30T05:39:36;101596.25;;;16.17;100.00
56084;BME280;41958;52.416;13.428;2022-08-30T05:42:01;101606.75;;;16.37;100.00
56084;BME280;41958;52.416;13.428;2022-08-30T05:44:26;101607.53;;;16.53;100.00
56084;BME280;41958;52.416;13.428;2022-08-30T05:46:51;101605.06;;;16.71;100.00
56084;BME280;41958;52.416;13.428;2022-08-30T05:49:17;101609.38;;;16.84;100.00
56084;BME280;41958;52.416;13.428;2022-08-30T05:51:42;101610.31;;;17.08;100.00
56084;BME280;41958;52.416;13.428;2022-08-30T05:54:08;101607.03;;;17.29;100.00
56084;BME280;41958;52.416;13.428;2022-08-30T05:56:35;101614.22;;;17.46;100.00
56084;BME280;41958;52.416;13.428;2022-08-30T05:59:03;101620.19;;;17.41;100.00
56084;BME280;41958;52.416;13.428;2022-08-30T06:01:31;101618.13;;;17.61;100.00
56084;BME280;41958;52.416;13.428;2022-08-30T06:03:58;101618.53;;;17.63;100.00
56084;BME280;41958;52.416;13.428;2022-08-30T06:06:28;101619.56;;;17.75;100.00
56084;BME280;41958;52.416;13.428;2022-08-30T06:08:54;101613.22;;;17.81;100.00
56084;BME280;41958;52.416;13.428;2022-08-30T06:11:21;101612.59;;;17.68;100.00
56084;BME280;41958;52.416;13.428;2022-08-30T06:13:48;101610.94;;;17.91;100.00
56084;BME280;41958;52.416;13.428;2022-08-30T06:16:15;101623.28;;;17.79;100.00
56084;BME280;41958;52.416;13.428;2022-08-30T06:18:40;101622.09;;;18.03;100.00
56084;BME280;41958;52.416;13.428;2022-08-30T06:21:06;101614.50;;;18.11;100.00
56084;BME280;41958;52.416;13.428;2022-08-30T06:23:31;101623.00;;;18.11;100.00
56084;BME280;41958;52.416;13.428;2022-08-30T06:26:05;101618.00;;;18.27;100.00
56084;BME280;41958;52.416;13.428;2022-08-30T06:28:31;101618.97;;;18.39;100.00
56084;BME280;41958;52.416;13.428;2022-08-30T06:30:56;101619.50;;;18.48;100.00
56084;BME280;41958;52.416;13.428;2022-08-30T06:33:22;101614.25;;;18.50;100.00
56084;BME280;41958;52.416;13.428;2022-08-30T06:35:47;101634.34;;;18.68;100.00
56084;BME280;41958;52.416;13.428;2022-08-30T06:38:13;101638.03;;;18.72;99.27
56084;BME280;41958;52.416;13.428;2022-08-30T06:40:38;101626.25;;;18.70;99.32
56084;BME280;41958;52.416;13.428;2022-08-30T06:43:03;101628.41;;;18.50;99.45
56084;BME280;41958;52.416;13.428;2022-08-30T06:45:28;101629.63;;;18.49;100.00
56084;BME280;41958;52.416;13.428;2022-08-30T06:47:55;101635.94;;;18.69;99.33
56084;BME280;41958;52.416;13.428;2022-08-30T06:50:20;101631.84;;;18.66;99.69
56084;BME280;41958;52.416;13.428;2022-08-30T06:52:46;101624.16;;;18.63;100.00
56084;BME280;41958;52.416;13.428;2022-08-30T06:55:14;101637.91;;;18.65;100.00
56084;BME280;41958;52.416;13.428;2022-08-30T06:57:39;101635.84;;;18.62;99.91
56084;BME280;41958;52.416;13.428;2022-08-30T07:00:06;101636.84;;;18.77;99.21
56084;BME280;41958;52.416;13.428;2022-08-30T07:02:32;101634.56;;;18.86;99.13
56084;BME280;41958;52.416;13.428;2022-08-30T07:04:58;101638.81;;;18.99;99.48
56084;BME280;41958;52.416;13.428;2022-08-30T07:07:23;101629.28;;;18.84;97.64
56084;BME280;41958;52.416;13.428;2022-08-30T07:09:48;101629.81;;;18.63;100.00
56084;BME280;41958;52.416;13.428;2022-08-30T07:12:13;101620.09;;;18.95;98.29
56084;BME280;41958;52.416;13.428;2022-08-30T07:14:40;101626.84;;;18.83;98.16
56084;BME280;41958;52.416;13.428;2022-08-30T07:17:07;101635.97;;;18.99;95.95
56084;BME280;41958;52.416;13.428;2022-08-30T07:19:53;101637.69;;;19.11;97.00
56084;BME280;41958;52.416;13.428;2022-08-30T07:22:19;101639.91;;;19.25;95.03
56084;BME280;41958;52.416;13.428;2022-08-30T07:24:45;101633.50;;;19.35;93.30
56084;BME280;41958;52.416;13.428;2022-08-30T07:27:10;101641.28;;;19.42;93.56
56084;BME280;41958;52.416;13.428;2022-08-30T07:32:01;101640.34;;;19.68;91.45
56084;BME280;41958;52.416;13.428;2022-08-30T07:34:26;101643.19;;;19.31;93.23
56084;BME280;41958;52.416;13.428;2022-08-30T07:36:51;101639.50;;;19.68;92.48
56084;BME280;41958;52.416;13.428;2022-08-30T07:39:17;101643.94;;;19.24;93.25
56084;BME280;41958;52.416;13.428;2022-08-30T07:41:42;101643.25;;;19.38;93.29
56084;BME280;41958;52.416;13.428;2022-08-30T07:44:08;101647.00;;;19.46;91.14
56084;BME280;41958;52.416;13.428;2022-08-30T07:46:35;101653.22;;;19.25;91.86
56084;BME280;41958;52.416;13.428;2022-08-30T07:49:01;101652.47;;;19.69;90.90
56084;BME280;41958;52.416;13.428;2022-08-30T07:51:27;101659.97;;;19.88;91.69
56084;BME280;41958;52.416;13.428;2022-08-30T07:53:53;101667.34;;;19.96;89.58
56084;BME280;41958;52.416;13.428;2022-08-30T07:56:19;101662.91;;;19.99;90.35
56084;BME280;41958;52.416;13.428;2022-08-30T07:58:45;101659.50;;;19.41;90.45
56084;BME280;41958;52.416;13.428;2022-08-30T08:01:11;101661.22;;;19.53;90.52
56084;BME280;41958;52.416;13.428;2022-08-30T08:03:38;101660.84;;;19.54;91.14
56084;BME280;41958;52.416;13.428;2022-08-30T08:06:06;101661.78;;;19.28;91.71
56084;BME280;41958;52.416;13.428;2022-08-30T08:08:32;101662.19;;;19.68;90.67
56084;BME280;41958;52.416;13.428;2022-08-30T08:11:11;101659.75;;;20.11;90.00
56084;BME280;41958;52.416;13.428;2022-08-30T08:13:38;101664.75;;;20.29;87.82
56084;BME280;41958;52.416;13.428;2022-08-30T08:16:04;101659.88;;;20.29;86.78
56084;BME280;41958;52.416;13.428;2022-08-30T08:18:29;101658.19;;;20.21;86.68
56084;BME280;41958;52.416;13.428;2022-08-30T08:20:55;101653.28;;;20.14;87.45
56084;BME280;41958;52.416;13.428;2022-08-30T08:23:21;101661.53;;;20.34;86.34
56084;BME280;41958;52.416;13.428;2022-08-30T08:25:46;101664.22;;;20.75;85.10
56084;BME280;41958;52.416;13.428;2022-08-30T08:28:11;101659.84;;;20.92;83.14
56084;BME280;41958;52.416;13.428;2022-08-30T08:30:37;101666.38;;;21.03;82.06
56084;BME280;41958;52.416;13.428;2022-08-30T08:33:03;101675.34;;;21.09;81.63
56084;BME280;41958;52.416;13.428;2022-08-30T08:35:29;101667.22;;;21.08;80.70
56084;BME280;41958;52.416;13.428;2022-08-30T08:37:55;101677.50;;;20.60;81.63
56084;BME280;41958;52.416;13.428;2022-08-30T08:40:20;101668.78;;;20.91;82.23
56084;BME280;41958;52.416;13.428;2022-08-30T08:45:31;101671.16;;;20.78;80.96
56084;BME280;41958;52.416;13.428;2022-08-30T08:48:17;101683.88;;;20.43;83.45
56084;BME280;41958;52.416;13.428;2022-08-30T08:50:48;101679.97;;;20.65;82.44
56084;BME280;41958;52.416;13.428;2022-08-30T08:53:33;101675.09;;;20.66;83.23
56084;BME280;41958;52.416;13.428;2022-08-30T08:55:59;101686.66;;;20.28;83.13
56084;BME280;41958;52.416;13.428;2022-08-30T08:58:30;101683.78;;;20.25;84.10
56084;BME280;41958;52.416;13.428;2022-08-30T09:00:57;101683.09;;;20.42;83.20
56084;BME280;41958;52.416;13.428;2022-08-30T09:03:26;101676.81;;;20.70;81.49
56084;BME280;41958;52.416;13.428;2022-08-30T09:05:53;101681.34;;;20.82;80.17
56084;BME280;41958;52.416;13.428;2022-08-30T09:08:20;101683.91;;;21.20;79.03
56084;BME280;41958;52.416;13.428;2022-08-30T09:10:59;101681.50;;;21.26;78.30
56084;BME280;41958;52.416;13.428;2022-08-30T09:13:25;101683.78;;;20.84;77.13
56084;BME280;41958;52.416;13.428;2022-08-30T09:15:53;101686.22;;;20.93;78.76
56084;BME280;41958;52.416;13.428;2022-08-30T09:18:19;101675.09;;;21.54;74.18
56084;BME280;41958;52.416;13.428;2022-08-30T09:20:47;101682.44;;;21.69;74.25
56084;BME280;41958;52.416;13.428;2022-08-30T09:25:49;101686.09;;;21.73;72.91
56084;BME280;41958;52.416;13.428;2022-08-30T09:28:24;101686.69;;;21.02;75.44
56084;BME280;41958;52.416;13.428;2022-08-30T09:31:07;101690.31;;;21.02;76.36
56084;BME280;41958;52.416;13.428;2022-08-30T09:34:00;101683.97;;;21.38;75.70
56084;BME280;41958;52.416;13.428;2022-08-30T09:36:38;101681.06;;;21.16;76.53
56084;BME280;41958;52.416;13.428;2022-08-30T09:39:12;101684.75;;;21.28;75.20
56084;BME280;41958;52.416;13.428;2022-08-30T09:41:42;101679.88;;;21.32;75.33
56084;BME280;41958;52.416;13.428;2022-08-30T09:44:20;101681.44;;;21.08;75.13
56084;BME280;41958;52.416;13.428;2022-08-30T09:46:49;101673.91;;;21.59;74.32
56084;BME280;41958;52.416;13.428;2022-08-30T09:49:37;101685.28;;;21.73;72.80
56084;BME280;41958;52.416;13.428;2022-08-30T09:58:40;101679.88;;;21.32;73.32
56084;BME280;41958;52.416;13.428;2022-08-30T10:01:19;101690.34;;;20.99;73.72
56084;BME280;41958;52.416;13.428;2022-08-30T10:07:27;101678.31;;;21.52;72.46
56084;BME280;41958;52.416;13.428;2022-08-30T10:10:02;101679.09;;;21.38;71.52
56084;BME280;41958;52.416;13.428;2022-08-30T10:12:41;101680.81;;;21.86;70.92
56084;BME280;41958;52.416;13.428;2022-08-30T10:15:48;101673.91;;;21.95;68.72
56084;BME280;41958;52.416;13.428;2022-08-30T10:18:46;101682.03;;;21.78;70.06
56084;BME280;41958;52.416;13.428;2022-08-30T10:21:22;101687.31;;;21.83;69.19
56084;BME280;41958;52.416;13.428;2022-08-30T10:23:55;101683.94;;;21.23;70.90
56084;BME280;41958;52.416;13.428;2022-08-30T10:26:32;101680.63;;;21.14;71.86
56084;BME280;41958;52.416;13.428;2022-08-30T10:29:07;101677.84;;;21.32;71.40
56084;BME280;41958;52.416;13.428;2022-08-30T10:31:45;101670.59;;;21.49;69.58
56084;BME280;41958;52.416;13.428;2022-08-30T10:35:03;101662.84;;;21.35;69.37
56084;BME280;41958;52.416;13.428;2022-08-30T10:37:37;101673.09;;;21.76;69.50
56084;BME280;41958;52.416;13.428;2022-08-30T10:40:14;101672.28;;;22.12;66.59
56084;BME280;41958;52.416;13.428;2022-08-30T10:43:02;101680.00;;;21.93;68.48
56084;BME280;41958;52.416;13.428;2022-08-30T10:45:32;101680.34;;;21.48;67.53
56084;BME280;41958;52.416;13.428;2022-08-30T10:48:10;101668.66;;;21.89;66.67
56084;BME280;41958;52.416;13.428;2022-08-30T10:50:42;101670.25;;;22.23;64.74
56084;BME280;41958;52.416;13.428;2022-08-30T10:53:15;101673.06;;;22.59;63.93
56084;BME280;41958;52.416;13.428;2022-08-30T10:55:47;101674.22;;;22.76;61.56
56084;BME280;41958;52.416;13.428;2022-08-30T10:58:14;101681.59;;;22.63;62.39
56084;BME280;41958;52.416;13.428;2022-08-30T11:00:55;101679.19;;;22.58;60.36
56084;BME280;41958;52.416;13.428;2022-08-30T11:03:41;101673.53;;;22.36;61.72
56084;BME280;41958;52.416;13.428;2022-08-30T11:06:21;101676.59;;;22.99;61.72
56084;BME280;41958;52.416;13.428;2022-08-30T11:09:17;101658.97;;;23.26;60.19
56084;BME280;41958;52.416;13.428;2022-08-30T11:12:18;101669.63;;;23.07;58.76
56084;BME280;41958;52.416;13.428;2022-08-30T11:14:46;101677.38;;;23.14;58.70
56084;BME280;41958;52.416;13.428;2022-08-30T11:17:59;101673.06;;;22.63;60.25
56084;BME280;41958;52.416;13.428;2022-08-30T11:20:32;101675.50;;;22.64;59.48
56084;BME280;41958;52.416;13.428;2022-08-30T11:26:06;101668.22;;;23.45;56.26
56084;BME280;41958;52.416;13.428;2022-08-30T11:33:52;101641.03;;;23.26;56.83
56084;BME280;41958;52.416;13.428;2022-08-30T11:39:06;101645.53;;;23.23;57.59
56084;BME280;41958;52.416;13.428;2022-08-30T11:41:40;101648.38;;;23.27;57.64
56084;BME280;41958;52.416;13.428;2022-08-30T11:50:21;101634.56;;;23.21;57.49
56084;BME280;41958;52.416;13.428;2022-08-30T11:53:04;101626.84;;;23.15;58.91
56084;BME280;41958;52.416;13.428;2022-08-30T12:03:40;101632.22;;;22.95;58.63
56084;BME280;41958;52.416;13.428;2022-08-30T12:06:08;101626.53;;;22.91;61.09
56084;BME280;41958;52.416;13.428;2022-08-30T12:08:44;101623.53;;;23.23;58.47
56084;BME280;41958;52.416;13.428;2022-08-30T12:16:22;101611.00;;;23.66;55.63
56084;BME280;41958;52.416;13.428;2022-08-30T12:18:56;101622.97;;;23.47;54.75
56084;BME280;41958;52.416;13.428;2022-08-30T12:21:33;101619.34;;;23.43;53.62
56084;BME280;41958;52.416;13.428;2022-08-30T12:24:15;101621.94;;;23.22;53.54
56084;BME280;41958;52.416;13.428;2022-08-30T12:26:45;101613.53;;;23.53;54.46
56084;BME280;41958;52.416;13.428;2022-08-30T12:29:15;101610.84;;;23.88;52.60
56084;BME280;41958;52.416;13.428;2022-08-30T12:32:01;101606.56;;;24.11;50.95
56084;BME280;41958;52.416;13.428;2022-08-30T12:34:50;101596.31;;;24.13;51.78
56084;BME280;41958;52.416;13.428;2022-08-30T12:37:23;101596.19;;;24.28;52.00
56084;BME280;41958;52.416;13.428;2022-08-30T12:40:14;101594.09;;;24.32;51.37
56084;BME280;41958;52.416;13.428;2022-08-30T12:43:01;101590.31;;;24.42;50.61
56084;BME280;41958;52.416;13.428;2022-08-30T12:45:42;101587.81;;;24.48;50.62
56084;BME280;41958;52.416;13.428;2022-08-30T12:48:11;101593.63;;;24.37;50.48
56084;BME280;41958;52.416;13.428;2022-08-30T12:53:22;101590.69;;;24.44;50.17
56084;BME280;41958;52.416;13.428;2022-08-30T12:55:54;101586.06;;;24.19;49.72
56084;BME280;41958;52.416;13.428;2022-08-30T12:58:39;101582.13;;;24.44;50.58
56084;BME280;41958;52.416;13.428;2022-08-30T13:01:30;101587.38;;;24.11;50.36
56084;BME280;41958;52.416;13.428;2022-08-30T13:04:22;101573.63;;;24.37;49.07
56084;BME280;41958;52.416;13.428;2022-08-30T13:06:58;101574.97;;;24.29;49.14
56084;BME280;41958;52.416;13.428;2022-08-30T13:09:32;101579.63;;;24.12;49.20
56084;BME280;41958;52.416;13.428;2022-08-30T13:11:59;101586.50;;;24.18;48.33
56084;BME280;41958;52.416;13.428;2022-08-30T13:14:36;101569.16;;;24.36;47.88
56084;BME280;41958;52.416;13.428;2022-08-30T13:23:01;101559.84;;;24.66;49.38
56084;BME280;41958;52.416;13.428;2022-08-30T13:25:27;101560.56;;;24.39;50.71
56084;BME280;41958;52.416;13.428;2022-08-30T13:27:54;101565.41;;;24.42;51.07
56084;BME280;41958;52.416;13.428;2022-08-30T13:30:19;101550.75;;;24.40;52.47
56084;BME280;41958;52.416;13.428;2022-08-30T13:32:44;101559.34;;;24.71;50.06
56084;BME280;41958;52.416;13.428;2022-08-30T13:35:10;101554.38;;;24.45;50.96
56084;BME280;41958;52.416;13.428;2022-08-30T13:37:36;101559.66;;;24.46;51.51
56084;BME280;41958;52.416;13.428;2022-08-30T13:40:03;101557.50;;;24.19;51.55
56084;BME280;41958;52.416;13.428;2022-08-30T13:42:29;101555.53;;;24.16;51.08